Time;durP1;ratioP1;P1;durP2;ratioP2;P2;SDS_P1;SDS_P2;PMS_P1;PMS_P2;Temp;Humidity;BMP_temperature;BMP_pressure;BME280_temperature;BME280_humidity;BME280_pressure;Samples;Min_cycle;Max_cycle;Signal;HPM_P1;HPM_P2
2022/07/25 00:01:31;;;;;;;8.23;6.28;;;;;;;;;;2224493;60;21087;-75
2022/07/25 00:03:58;;;;;;;7.07;6.37;;;;;;;;;;2224029;60;21076;-75
2022/07/25 00:06:25;;;;;;;9.13;6.53;;;;;;;;;;2224033;60;21654;-75
2022/07/25 00:08:52;;;;;;;8.88;6.50;;;;;;;;;;2224553;60;21084;-74
2022/07/25 00:11:19;;;;;;;9.55;6.28;;;;;;;;;;2224435;60;21148;-75
2022/07/25 00:13:46;;;;;;;7.87;6.72;;;;;;;;;;2224550;60;21071;-75
2022/07/25 00:16:13;;;;;;;7.18;6.47;;;;;;;;;;2224271;60;21071;-74
2022/07/25 00:18:41;;;;;;;6.55;5.87;;;;;;;;;;2224392;60;21566;-74
2022/07/25 00:21:08;;;;;;;8.82;6.47;;;;;;;;;;2223724;60;21072;-76
2022/07/25 00:23:35;;;;;;;7.37;5.72;;;;;;;;;;2444162;56;21072;-75
2022/07/25 00:26:02;;;;;;;7.35;5.82;;;;;;;;;;2224127;60;21091;-74
2022/07/25 00:28:29;;;;;;;7.25;5.90;;;;;;;;;;2224483;60;21573;-75
2022/07/25 00:30:56;;;;;;;8.55;5.87;;;;;;;;;;2224284;60;21138;-74
2022/07/25 00:33:23;;;;;;;9.70;6.90;;;;;;;;;;2224656;60;21088;-74
2022/07/25 00:35:50;;;;;;;6.55;5.85;;;;;;;;;;2224236;60;21435;-75
2022/07/25 00:38:17;;;;;;;6.35;5.75;;;;;;;;;;2224293;60;21155;-75
2022/07/25 00:40:44;;;;;;;8.13;6.72;;;;;;;;;;2224508;60;21195;-75
2022/07/25 00:43:11;;;;;;;7.47;6.00;;;;;;;;;;2224227;60;21144;-75
2022/07/25 00:45:38;;;;;;;8.52;6.50;;;;;;;;;;2224313;60;21195;-75
2022/07/25 00:48:07;;;;;;;9.05;6.57;;;;;;;;;;2224863;60;21084;-75
2022/07/25 00:50:34;;;;;;;6.65;5.95;;;;;;;;;;2224242;60;21143;-75
2022/07/25 00:53:01;;;;;;;7.82;6.43;;;;;;;;;;2224419;60;21067;-75
2022/07/25 00:55:29;;;;;;;6.87;6.18;;;;;;;;;;2224023;60;21072;-75
2022/07/25 00:57:56;;;;;;;9.80;6.57;;;;;;;;;;2224781;60;21203;-75
2022/07/25 01:00:23;;;;;;;6.80;5.93;;;;;;;;;;2444933;56;21393;-75
2022/07/25 01:02:50;;;;;;;8.98;6.30;;;;;;;;;;2224475;60;21097;-75
2022/07/25 01:05:17;;;;;;;7.93;6.37;;;;;;;;;;2224176;60;21602;-75
2022/07/25 01:07:44;;;;;;;7.72;6.80;;;;;;;;;;2224321;60;21183;-75
2022/07/25 01:10:11;;;;;;;9.07;6.55;;;;;;;;;;2224190;60;21095;-75
2022/07/25 01:12:47;;;;;;;7.43;6.10;;;;;;;;;;2224737;60;21112;-75
2022/07/25 01:17:49;;;;;;;8.38;6.40;;;;;;;;;;2336710;57;28092;-75
2022/07/25 01:20:17;;;;;;;7.75;5.80;;;;;;;;;;2349902;56;21133;-75
2022/07/25 01:22:44;;;;;;;7.05;6.03;;;;;;;;;;2374584;56;21055;-75
2022/07/25 01:25:12;;;;;;;6.05;5.45;;;;;;;;;;2375308;56;21185;-75
2022/07/25 01:27:39;;;;;;;6.28;5.68;;;;;;;;;;2375275;56;21094;-75
2022/07/25 01:30:08;;;;;;;8.65;5.85;;;;;;;;;;2375506;56;21043;-75
2022/07/25 01:32:36;;;;;;;12.07;6.35;;;;;;;;;;2374992;56;21098;-75
2022/07/25 01:35:03;;;;;;;5.85;5.20;;;;;;;;;;2375235;56;21039;-75
2022/07/25 01:37:30;;;;;;;7.07;5.10;;;;;;;;;;2375249;56;21142;-75
2022/07/25 01:39:57;;;;;;;6.40;4.87;;;;;;;;;;2375440;56;21624;-75
2022/07/25 01:42:25;;;;;;;6.97;5.40;;;;;;;;;;2375485;56;21122;-75
2022/07/25 01:44:52;;;;;;;8.63;5.15;;;;;;;;;;2375584;56;21046;-75
2022/07/25 01:47:19;;;;;;;6.22;4.90;;;;;;;;;;2375166;56;21121;-75
2022/07/25 01:49:46;;;;;;;6.00;5.18;;;;;;;;;;2375387;56;21053;-75
2022/07/25 01:52:13;;;;;;;5.78;4.93;;;;;;;;;;2374661;56;21043;-75
2022/07/25 01:54:40;;;;;;;7.68;5.37;;;;;;;;;;2375304;56;21035;-75
2022/07/25 01:57:08;;;;;;;6.18;4.82;;;;;;;;;;2375258;56;21051;-75
2022/07/25 01:59:37;;;;;;;7.03;4.68;;;;;;;;;;2374878;56;21027;-75
2022/07/25 02:02:05;;;;;;;5.62;4.78;;;;;;;;;;2375451;56;21035;-75
2022/07/25 02:04:32;;;;;;;5.90;5.00;;;;;;;;;;2628865;52;21095;-75
2022/07/25 02:06:59;;;;;;;6.35;4.85;;;;;;;;;;2375067;56;21051;-75
2022/07/25 02:09:26;;;;;;;6.32;4.50;;;;;;;;;;2375497;56;21043;-75
2022/07/25 02:11:53;;;;;;;6.53;4.57;;;;;;;;;;2375066;56;21552;-75
2022/07/25 02:14:20;;;;;;;8.60;4.45;;;;;;;;;;2375084;56;21039;-75
2022/07/25 02:16:47;;;;;;;7.32;4.87;;;;;;;;;;2374828;56;21047;-75
2022/07/25 02:19:14;;;;;;;6.00;3.87;;;;;;;;;;2375324;56;21039;-75
2022/07/25 02:21:41;;;;;;;5.12;4.22;;;;;;;;;;2374912;56;21035;-75
2022/07/25 02:24:09;;;;;;;8.00;4.65;;;;;;;;;;2374154;56;21561;-75
2022/07/25 02:26:36;;;;;;;5.40;4.90;;;;;;;;;;2374817;56;21047;-75
2022/07/25 02:29:03;;;;;;;4.95;4.45;;;;;;;;;;2374429;56;21071;-75
2022/07/25 02:31:30;;;;;;;5.20;4.00;;;;;;;;;;2373757;56;21035;-75
2022/07/25 02:33:57;;;;;;;6.53;3.92;;;;;;;;;;2374291;56;21027;-75
2022/07/25 02:36:25;;;;;;;5.95;4.45;;;;;;;;;;2373986;56;21039;-74
2022/07/25 02:38:52;;;;;;;5.93;4.47;;;;;;;;;;2374366;56;21043;-75
2022/07/25 02:41:19;;;;;;;4.85;4.05;;;;;;;;;;2374035;56;21182;-75
2022/07/25 02:43:46;;;;;;;5.40;4.80;;;;;;;;;;2374408;56;21042;-75
2022/07/25 02:46:13;;;;;;;4.70;4.30;;;;;;;;;;2374208;56;21043;-75
2022/07/25 02:48:40;;;;;;;4.72;4.10;;;;;;;;;;2374469;56;21177;-74
2022/07/25 02:51:07;;;;;;;5.80;4.82;;;;;;;;;;2374159;56;21047;-74
2022/07/25 02:53:34;;;;;;;5.22;4.47;;;;;;;;;;2374471;56;21051;-75
2022/07/25 02:56:01;;;;;;;5.03;4.40;;;;;;;;;;2627112;52;21074;-74
2022/07/25 02:58:28;;;;;;;5.45;4.22;;;;;;;;;;2374448;56;21123;-75
2022/07/25 03:00:55;;;;;;;5.35;3.80;;;;;;;;;;2374382;56;21035;-75
2022/07/25 03:05:57;;;;;;;5.97;4.65;;;;;;;;;;2336228;57;27807;-75
2022/07/25 03:08:24;;;;;;;5.53;4.20;;;;;;;;;;2347163;57;21129;-75
2022/07/25 03:10:51;;;;;;;5.87;3.95;;;;;;;;;;2357015;56;21127;-75
2022/07/25 03:13:18;;;;;;;4.28;3.87;;;;;;;;;;2375517;56;21553;-74
2022/07/25 03:15:45;;;;;;;3.85;3.55;;;;;;;;;;2375316;56;21102;-75
2022/07/25 03:18:13;;;;;;;5.18;3.60;;;;;;;;;;2375366;56;21628;-75
2022/07/25 03:20:40;;;;;;;7.37;3.87;;;;;;;;;;2375241;56;21106;-75
2022/07/25 03:23:07;;;;;;;6.75;3.80;;;;;;;;;;2375275;56;21031;-75
2022/07/25 03:25:34;;;;;;;4.15;3.75;;;;;;;;;;2374871;56;21105;-74
2022/07/25 03:28:01;;;;;;;5.05;3.58;;;;;;;;;;2375314;56;21034;-75
2022/07/25 03:30:28;;;;;;;6.20;3.78;;;;;;;;;;2375463;56;21047;-75
2022/07/25 03:32:55;;;;;;;5.32;4.10;;;;;;;;;;2628708;52;21075;-75
2022/07/25 03:35:22;;;;;;;4.68;3.35;;;;;;;;;;2374337;56;21162;-74
2022/07/25 03:37:49;;;;;;;4.85;3.42;;;;;;;;;;2374868;56;21138;-75
2022/07/25 03:40:16;;;;;;;5.30;3.30;;;;;;;;;;2375461;56;21073;-74
2022/07/25 03:42:43;;;;;;;4.75;3.55;;;;;;;;;;2375513;56;21015;-75
2022/07/25 03:45:11;;;;;;;4.43;3.67;;;;;;;;;;2374976;56;21105;-75
2022/07/25 03:47:38;;;;;;;4.62;3.47;;;;;;;;;;2374976;56;21106;-75
2022/07/25 03:50:05;;;;;;;3.72;3.22;;;;;;;;;;2375086;56;21046;-73
2022/07/25 03:52:33;;;;;;;3.85;3.42;;;;;;;;;;2375351;56;21569;-75
2022/07/25 03:55:00;;;;;;;4.20;3.33;;;;;;;;;;2627742;52;21019;-75
2022/07/25 03:57:27;;;;;;;5.90;3.50;;;;;;;;;;2374646;56;21047;-75
2022/07/25 03:59:54;;;;;;;3.92;3.30;;;;;;;;;;2374714;56;21047;-75
2022/07/25 04:02:21;;;;;;;4.07;3.40;;;;;;;;;;2375219;56;21142;-75
2022/07/25 04:04:48;;;;;;;3.58;2.92;;;;;;;;;;2628680;52;21035;-75
2022/07/25 04:07:15;;;;;;;4.00;2.90;;;;;;;;;;2374786;56;21050;-75
2022/07/25 04:09:43;;;;;;;4.87;3.08;;;;;;;;;;2628510;52;21302;-74
2022/07/25 04:12:10;;;;;;;4.72;3.70;;;;;;;;;;2374814;56;21125;-76
2022/07/25 04:14:37;;;;;;;3.92;2.85;;;;;;;;;;2626351;52;21094;-75
2022/07/25 04:17:05;;;;;;;5.45;3.60;;;;;;;;;;2373321;56;21113;-76
2022/07/25 04:19:32;;;;;;;4.35;2.97;;;;;;;;;;2373966;56;21060;-75
2022/07/25 04:21:59;;;;;;;4.28;3.22;;;;;;;;;;2374189;56;21111;-73
2022/07/25 04:24:26;;;;;;;3.58;2.65;;;;;;;;;;2374266;56;21106;-72
2022/07/25 04:26:53;;;;;;;3.53;2.92;;;;;;;;;;2373354;56;21103;-75
2022/07/25 04:29:20;;;;;;;4.18;2.53;;;;;;;;;;2373805;56;21616;-75
2022/07/25 04:31:47;;;;;;;3.42;3.10;;;;;;;;;;2374181;56;21090;-75
2022/07/25 04:34:14;;;;;;;4.82;3.05;;;;;;;;;;2374424;56;21049;-75
2022/07/25 04:36:42;;;;;;;3.40;2.83;;;;;;;;;;2627292;52;21278;-75
2022/07/25 04:39:09;;;;;;;2.95;2.65;;;;;;;;;;2374463;56;21102;-75
2022/07/25 04:41:36;;;;;;;3.25;2.78;;;;;;;;;;2373584;56;21098;-76
2022/07/25 04:44:03;;;;;;;3.20;2.90;;;;;;;;;;2373722;56;21054;-72
2022/07/25 04:46:30;;;;;;;5.30;3.22;;;;;;;;;;2373815;56;21034;-75
2022/07/25 04:48:57;;;;;;;3.30;2.92;;;;;;;;;;2374297;56;21063;-74
2022/07/25 04:51:24;;;;;;;4.32;3.47;;;;;;;;;;2373869;56;21509;-75
2022/07/25 04:53:51;;;;;;;4.20;2.80;;;;;;;;;;2374169;56;21122;-74
2022/07/25 04:56:18;;;;;;;4.20;3.28;;;;;;;;;;2373885;56;21608;-74
2022/07/25 04:58:45;;;;;;;3.53;3.00;;;;;;;;;;2373169;56;21043;-74
2022/07/25 05:01:12;;;;;;;3.22;2.70;;;;;;;;;;2396220;54;21090;-77
2022/07/25 05:03:39;;;;;;;3.45;2.92;;;;;;;;;;2302104;58;21133;-76
2022/07/25 05:06:07;;;;;;;5.25;2.92;;;;;;;;;;2301283;58;21066;-76
2022/07/25 05:08:34;;;;;;;2.60;2.40;;;;;;;;;;2301474;58;21117;-76
2022/07/25 05:11:01;;;;;;;3.55;2.70;;;;;;;;;;2301616;58;21262;-77
2022/07/25 05:13:28;;;;;;;3.20;2.65;;;;;;;;;;2300028;58;21070;-76
2022/07/25 05:15:55;;;;;;;3.92;2.95;;;;;;;;;;2297851;58;21541;-76
2022/07/25 05:18:22;;;;;;;4.35;2.85;;;;;;;;;;2299954;58;21070;-76
2022/07/25 05:20:49;;;;;;;2.72;2.37;;;;;;;;;;2300384;58;21046;-76
2022/07/25 05:23:16;;;;;;;4.32;3.53;;;;;;;;;;2300665;58;21065;-76
2022/07/25 05:25:44;;;;;;;3.17;2.62;;;;;;;;;;2299827;58;21150;-76
2022/07/25 05:28:13;;;;;;;3.47;2.60;;;;;;;;;;2300303;58;21612;-76
2022/07/25 05:30:40;;;;;;;3.00;2.65;;;;;;;;;;2300003;58;21130;-76
2022/07/25 05:33:07;;;;;;;3.78;2.62;;;;;;;;;;2299804;58;21640;-76
2022/07/25 05:35:35;;;;;;;2.95;2.62;;;;;;;;;;2537003;54;21197;-76
2022/07/25 05:38:02;;;;;;;7.62;3.33;;;;;;;;;;2299576;58;21066;-76
2022/07/25 05:40:29;;;;;;;2.75;2.12;;;;;;;;;;2300017;58;21130;-76
2022/07/25 05:42:56;;;;;;;3.10;2.65;;;;;;;;;;2300397;58;22294;-76
2022/07/25 05:45:23;;;;;;;3.62;2.70;;;;;;;;;;2299714;58;21075;-76
2022/07/25 05:47:50;;;;;;;4.00;3.00;;;;;;;;;;2299964;58;21042;-76
2022/07/25 05:50:17;;;;;;;3.12;2.58;;;;;;;;;;2300202;58;21064;-76
2022/07/25 05:52:44;;;;;;;3.58;2.70;;;;;;;;;;2300239;58;21039;-76
2022/07/25 05:55:12;;;;;;;3.33;2.60;;;;;;;;;;2299960;58;21162;-76
2022/07/25 05:57:39;;;;;;;4.78;2.83;;;;;;;;;;2300015;58;21067;-76
2022/07/25 06:00:08;;;;;;;3.97;2.60;;;;;;;;;;2300087;58;21309;-76
2022/07/25 06:02:35;;;;;;;3.67;2.83;;;;;;;;;;2299997;58;21066;-76
2022/07/25 06:05:02;;;;;;;3.10;2.72;;;;;;;;;;2300331;58;21074;-76
2022/07/25 06:07:29;;;;;;;23.58;4.47;;;;;;;;;;2300057;58;21107;-76
2022/07/25 06:09:56;;;;;;;9.32;3.55;;;;;;;;;;2299398;58;21605;-76
2022/07/25 06:12:23;;;;;;;6.35;2.95;;;;;;;;;;2298253;58;21135;-76
2022/07/25 06:14:50;;;;;;;5.75;2.80;;;;;;;;;;2299350;58;21121;-76
2022/07/25 06:17:17;;;;;;;2.97;2.67;;;;;;;;;;2537256;54;21042;-76
2022/07/25 06:19:44;;;;;;;2.78;2.50;;;;;;;;;;2299082;58;21185;-76
2022/07/25 06:22:12;;;;;;;2.92;2.60;;;;;;;;;;2300262;58;21130;-76
2022/07/25 06:24:39;;;;;;;3.35;3.00;;;;;;;;;;2299649;58;21051;-76
2022/07/25 06:27:07;;;;;;;4.12;2.47;;;;;;;;;;2299145;58;21067;-76
2022/07/25 06:29:34;;;;;;;4.80;2.72;;;;;;;;;;2299431;58;21129;-76
2022/07/25 06:32:01;;;;;;;3.67;2.75;;;;;;;;;;2299271;58;21114;-76
2022/07/25 06:34:28;;;;;;;3.90;2.87;;;;;;;;;;2299548;58;21086;-76
2022/07/25 06:36:56;;;;;;;7.47;2.90;;;;;;;;;;2297691;58;21599;-76
2022/07/25 06:39:23;;;;;;;4.47;3.12;;;;;;;;;;2298926;58;21109;-76
2022/07/25 06:41:50;;;;;;;5.37;2.70;;;;;;;;;;2300205;58;21130;-78
2022/07/25 06:44:17;;;;;;;6.62;3.05;;;;;;;;;;2299164;58;21078;-79
2022/07/25 06:46:44;;;;;;;3.75;2.75;;;;;;;;;;2298603;58;21058;-75
2022/07/25 06:49:11;;;;;;;3.58;2.83;;;;;;;;;;2299469;58;21087;-76
2022/07/25 06:51:38;;;;;;;3.67;2.75;;;;;;;;;;2299834;58;22146;-76
2022/07/25 06:54:06;;;;;;;4.05;2.83;;;;;;;;;;2299458;58;21624;-76
2022/07/25 06:56:33;;;;;;;4.72;3.30;;;;;;;;;;2300145;58;21663;-76
2022/07/25 06:59:00;;;;;;;3.22;2.78;;;;;;;;;;2300151;58;21103;-76
2022/07/25 07:01:27;;;;;;;3.85;2.75;;;;;;;;;;2300234;58;21070;-76
2022/07/25 07:03:55;;;;;;;4.12;3.17;;;;;;;;;;2300070;58;21048;-75
2022/07/25 07:06:22;;;;;;;3.17;2.87;;;;;;;;;;2299626;58;21068;-75
2022/07/25 07:08:49;;;;;;;5.85;2.92;;;;;;;;;;2299837;58;21058;-76
2022/07/25 07:11:16;;;;;;;3.33;2.87;;;;;;;;;;2300315;58;21325;-76
2022/07/25 07:13:43;;;;;;;3.22;2.62;;;;;;;;;;2300133;58;21150;-76
2022/07/25 07:16:10;;;;;;;5.53;3.50;;;;;;;;;;2299798;58;21405;-76
2022/07/25 07:18:37;;;;;;;7.45;3.12;;;;;;;;;;2300256;58;21082;-76
2022/07/25 07:21:05;;;;;;;5.43;3.65;;;;;;;;;;2300079;58;21035;-76
2022/07/25 07:23:32;;;;;;;6.93;4.28;;;;;;;;;;2299918;58;21102;-76
2022/07/25 07:26:00;;;;;;;6.90;4.20;;;;;;;;;;2299511;58;21125;-75
2022/07/25 07:28:27;;;;;;;5.03;3.80;;;;;;;;;;2300356;58;21130;-76
2022/07/25 07:30:54;;;;;;;4.53;3.67;;;;;;;;;;2300157;58;21122;-76
2022/07/25 07:33:21;;;;;;;5.62;4.00;;;;;;;;;;2300628;58;21154;-76
2022/07/25 07:35:48;;;;;;;5.93;3.90;;;;;;;;;;2299363;58;21130;-76
2022/07/25 07:38:16;;;;;;;4.18;3.78;;;;;;;;;;2300358;58;21128;-76
2022/07/25 07:40:43;;;;;;;5.32;3.95;;;;;;;;;;2298779;58;21141;-78
2022/07/25 07:43:10;;;;;;;6.05;4.18;;;;;;;;;;2300723;58;21066;-76
2022/07/25 07:45:37;;;;;;;6.90;4.43;;;;;;;;;;2298447;58;21074;-77
2022/07/25 07:48:06;;;;;;;6.25;4.22;;;;;;;;;;2299774;58;21066;-76
2022/07/25 07:50:34;;;;;;;4.28;3.55;;;;;;;;;;2299250;58;21142;-77
2022/07/25 07:53:01;;;;;;;4.97;4.35;;;;;;;;;;2297328;58;21062;-76
2022/07/25 07:55:44;;;;;;;5.00;4.07;;;;;;;;;;2299485;58;21058;-77
2022/07/25 07:58:11;;;;;;;5.43;3.55;;;;;;;;;;2537067;54;21066;-77
2022/07/25 08:00:38;;;;;;;6.28;4.12;;;;;;;;;;2537125;54;21039;-77
2022/07/25 08:03:07;;;;;;;7.65;4.47;;;;;;;;;;2299713;58;21058;-77
2022/07/25 08:05:36;;;;;;;6.55;4.57;;;;;;;;;;2299378;58;21062;-77
2022/07/25 08:08:04;;;;;;;6.05;4.22;;;;;;;;;;2300029;58;21114;-77
2022/07/25 08:10:33;;;;;;;6.03;4.37;;;;;;;;;;2299561;58;22393;-77
2022/07/25 08:13:01;;;;;;;4.32;3.60;;;;;;;;;;2299442;58;21070;-77
2022/07/25 08:15:28;;;;;;;5.68;4.50;;;;;;;;;;2299291;58;21086;-77
2022/07/25 08:17:55;;;;;;;5.70;4.22;;;;;;;;;;2300377;58;21058;-77
2022/07/25 08:20:22;;;;;;;5.00;4.47;;;;;;;;;;2300364;58;21553;-77
2022/07/25 08:22:50;;;;;;;6.82;4.57;;;;;;;;;;2300102;58;21051;-77
2022/07/25 08:25:18;;;;;;;5.37;4.30;;;;;;;;;;2300190;58;21090;-77
2022/07/25 08:27:45;;;;;;;7.40;5.00;;;;;;;;;;2299922;58;22660;-77
2022/07/25 08:30:13;;;;;;;7.30;4.93;;;;;;;;;;2299370;58;21058;-77
2022/07/25 08:32:46;;;;;;;8.70;4.55;;;;;;;;;;2298238;58;21079;-77
2022/07/25 08:35:14;;;;;;;5.40;4.30;;;;;;;;;;2300639;58;21070;-77
2022/07/25 08:37:41;;;;;;;4.85;4.35;;;;;;;;;;2298587;58;21085;-77
2022/07/25 08:40:09;;;;;;;4.87;4.37;;;;;;;;;;2299599;58;21150;-77
2022/07/25 08:42:37;;;;;;;5.35;4.65;;;;;;;;;;2299241;58;21066;-77
2022/07/25 08:45:06;;;;;;;5.25;4.62;;;;;;;;;;2299768;58;21128;-77
2022/07/25 08:47:33;;;;;;;6.07;4.80;;;;;;;;;;2298301;58;21074;-77
2022/07/25 08:50:02;;;;;;;7.05;4.55;;;;;;;;;;2299988;58;21085;-77
2022/07/25 08:52:30;;;;;;;8.18;4.35;;;;;;;;;;2299602;58;21122;-77
2022/07/25 08:54:57;;;;;;;7.78;4.28;;;;;;;;;;2537854;54;21134;-77
2022/07/25 08:57:24;;;;;;;4.87;4.35;;;;;;;;;;2536356;54;21058;-76
2022/07/25 08:59:51;;;;;;;5.90;4.78;;;;;;;;;;2299908;58;21055;-77
2022/07/25 09:02:19;;;;;;;6.85;4.85;;;;;;;;;;2300318;58;21043;-77
2022/07/25 09:04:46;;;;;;;5.55;4.85;;;;;;;;;;2301392;58;21625;-77
2022/07/25 09:07:13;;;;;;;6.45;4.30;;;;;;;;;;2301522;58;21059;-77
2022/07/25 09:09:40;;;;;;;7.37;5.12;;;;;;;;;;2300017;58;21201;-77
2022/07/25 09:12:08;;;;;;;5.20;4.60;;;;;;;;;;2300616;58;21657;-77
2022/07/25 09:14:42;;;;;;;5.82;4.60;;;;;;;;;;2537442;54;21063;-77
2022/07/25 09:17:09;;;;;;;5.53;4.85;;;;;;;;;;2299702;58;21062;-76
2022/07/25 09:19:37;;;;;;;5.50;4.65;;;;;;;;;;2536902;54;21066;-77
2022/07/25 09:22:05;;;;;;;5.25;4.57;;;;;;;;;;2300325;58;21054;-77
2022/07/25 09:24:33;;;;;;;6.80;4.72;;;;;;;;;;2298829;58;21070;-78
2022/07/25 09:27:01;;;;;;;9.32;4.95;;;;;;;;;;2300104;58;21060;-77
2022/07/25 09:29:29;;;;;;;7.35;4.87;;;;;;;;;;2300232;58;21046;-77
2022/07/25 09:31:57;;;;;;;6.68;4.65;;;;;;;;;;2301064;58;21114;-78
2022/07/25 09:34:35;;;;;;;5.78;4.75;;;;;;;;;;2301687;58;21066;-78
2022/07/25 09:37:03;;;;;;;6.35;5.07;;;;;;;;;;2300214;58;21141;-78
2022/07/25 09:39:34;;;;;;;6.28;5.25;;;;;;;;;;2301167;58;21058;-77
2022/07/25 09:42:01;;;;;;;7.22;4.50;;;;;;;;;;2301049;58;21619;-77
2022/07/25 09:44:29;;;;;;;5.80;5.07;;;;;;;;;;2301667;58;21086;-78
2022/07/25 09:46:57;;;;;;;8.18;5.12;;;;;;;;;;2301272;58;21134;-77
2022/07/25 09:49:25;;;;;;;5.85;4.30;;;;;;;;;;2538841;54;21055;-78
2022/07/25 09:51:53;;;;;;;5.72;4.65;;;;;;;;;;2301509;58;21130;-78
2022/07/25 09:54:20;;;;;;;5.12;4.55;;;;;;;;;;2301279;58;21054;-78
2022/07/25 09:56:47;;;;;;;7.35;5.43;;;;;;;;;;2299975;58;21150;-78
2022/07/25 09:59:14;;;;;;;6.12;4.80;;;;;;;;;;2301903;58;21058;-78
2022/07/25 10:01:47;;;;;;;5.65;4.68;;;;;;;;;;2301524;58;21063;-78
2022/07/25 10:04:19;;;;;;;6.20;4.70;;;;;;;;;;2539273;54;21059;-78
2022/07/25 10:06:50;;;;;;;6.47;4.68;;;;;;;;;;2300624;58;21106;-77
2022/07/25 10:09:17;;;;;;;5.65;4.40;;;;;;;;;;2299950;58;21059;-77
2022/07/25 10:12:03;;;;;;;8.63;4.82;;;;;;;;;;2300060;58;21046;-78
2022/07/25 10:14:30;;;;;;;8.90;5.35;;;;;;;;;;2299152;58;21098;-78
2022/07/25 10:16:57;;;;;;;6.00;5.05;;;;;;;;;;2297246;58;21134;-78
2022/07/25 10:19:41;;;;;;;5.32;4.72;;;;;;;;;;2298921;58;21664;-77
2022/07/25 10:22:09;;;;;;;5.82;4.43;;;;;;;;;;2299404;58;21077;-78
2022/07/25 10:24:37;;;;;;;6.28;5.37;;;;;;;;;;2300078;58;21158;-78
2022/07/25 10:27:10;;;;;;;6.15;4.62;;;;;;;;;;2298120;58;21287;-79
2022/07/25 10:29:37;;;;;;;7.60;5.00;;;;;;;;;;2299962;58;21070;-77
2022/07/25 10:47:23;;;;;;;6.07;4.53;;;;;;;;;;2412970;53;69029;-80
2022/07/25 10:49:56;;;;;;;5.97;4.53;;;;;;;;;;2443919;57;21981;-81
2022/07/25 10:52:27;;;;;;;5.75;4.40;;;;;;;;;;2444018;56;21601;-80
2022/07/25 10:54:55;;;;;;;9.32;4.78;;;;;;;;;;2222937;60;21164;-80
2022/07/25 10:57:22;;;;;;;6.43;4.93;;;;;;;;;;2221695;60;21085;-81
2022/07/25 10:59:49;;;;;;;6.30;4.82;;;;;;;;;;2221950;60;21132;-83
2022/07/25 11:02:17;;;;;;;5.97;4.68;;;;;;;;;;2240229;54;21536;-79
2022/07/25 11:04:44;;;;;;;5.05;4.55;;;;;;;;;;2283909;55;21162;-78
2022/07/25 11:07:12;;;;;;;4.72;4.20;;;;;;;;;;2281107;55;21050;-79
2022/07/25 11:09:40;;;;;;;6.15;4.30;;;;;;;;;;2267477;59;21631;-79
2022/07/25 11:12:07;;;;;;;5.18;4.68;;;;;;;;;;2266394;59;21052;-79
2022/07/25 11:14:36;;;;;;;6.35;4.30;;;;;;;;;;2283821;55;21116;-78
2022/07/25 11:17:13;;;;;;;5.43;4.50;;;;;;;;;;2272078;55;21199;-78
2022/07/25 11:19:41;;;;;;;6.62;4.37;;;;;;;;;;2265483;59;21132;-79
2022/07/25 11:22:08;;;;;;;5.47;4.55;;;;;;;;;;2265646;59;21143;-79
2022/07/25 11:24:35;;;;;;;5.43;4.22;;;;;;;;;;2265688;59;21139;-79
2022/07/25 11:27:03;;;;;;;5.12;4.62;;;;;;;;;;2265401;59;21143;-79
2022/07/25 11:29:30;;;;;;;7.43;4.60;;;;;;;;;;2268057;55;22191;-79
2022/07/25 11:31:58;;;;;;;7.70;4.68;;;;;;;;;;2265555;59;22497;-79
2022/07/25 11:34:27;;;;;;;6.28;4.62;;;;;;;;;;2264534;59;21656;-80
2022/07/25 11:36:56;;;;;;;6.37;4.72;;;;;;;;;;2271640;55;21628;-79
2022/07/25 11:39:25;;;;;;;6.30;4.28;;;;;;;;;;2266458;59;21079;-79
2022/07/25 11:42:02;;;;;;;5.28;4.70;;;;;;;;;;2265980;57;21060;-79
2022/07/25 11:44:33;;;;;;;4.78;4.15;;;;;;;;;;2266139;59;21143;-79
2022/07/25 11:47:01;;;;;;;6.85;4.75;;;;;;;;;;2265682;59;21092;-79
2022/07/25 11:49:28;;;;;;;6.47;5.20;;;;;;;;;;2264809;59;21091;-79
2022/07/25 11:51:55;;;;;;;4.80;4.30;;;;;;;;;;2266069;59;21159;-79
2022/07/25 11:54:22;;;;;;;7.82;4.80;;;;;;;;;;2265847;59;21115;-79
2022/07/25 11:56:49;;;;;;;6.32;4.32;;;;;;;;;;2265430;59;21095;-79
2022/07/25 11:59:16;;;;;;;5.25;4.30;;;;;;;;;;2266319;59;21643;-79
2022/07/25 12:01:43;;;;;;;4.87;4.47;;;;;;;;;;2270879;55;21124;-79
2022/07/25 12:04:11;;;;;;;5.90;4.70;;;;;;;;;;2324002;55;21147;-79
2022/07/25 12:06:39;;;;;;;6.15;4.25;;;;;;;;;;2265077;59;21108;-80
2022/07/25 12:09:13;;;;;;;6.18;4.68;;;;;;;;;;2287000;55;21144;-80
2022/07/25 12:11:40;;;;;;;6.55;4.57;;;;;;;;;;2278672;55;21148;-79
2022/07/25 12:14:08;;;;;;;5.53;4.53;;;;;;;;;;2265940;56;21632;-80
2022/07/25 12:16:35;;;;;;;5.40;4.25;;;;;;;;;;2265415;59;21155;-78
2022/07/25 12:19:03;;;;;;;7.97;4.68;;;;;;;;;;2265743;59;21071;-80
2022/07/25 12:21:30;;;;;;;5.68;4.55;;;;;;;;;;2265196;57;21167;-78
2022/07/25 12:23:57;;;;;;;7.28;4.78;;;;;;;;;;2275032;55;21134;-79
2022/07/25 12:26:24;;;;;;;6.28;4.68;;;;;;;;;;2296682;55;21096;-79
2022/07/25 12:28:51;;;;;;;6.10;5.18;;;;;;;;;;2265520;59;21091;-80
2022/07/25 12:31:18;;;;;;;5.18;4.45;;;;;;;;;;2266644;59;21159;-79
2022/07/25 12:33:45;;;;;;;4.90;4.45;;;;;;;;;;2265901;59;21107;-80
2022/07/25 12:36:12;;;;;;;4.85;4.18;;;;;;;;;;2265389;59;21604;-80
2022/07/25 12:38:40;;;;;;;7.28;4.57;;;;;;;;;;2268828;55;21083;-79
2022/07/25 12:41:07;;;;;;;9.18;4.90;;;;;;;;;;2266181;57;21115;-80
2022/07/25 12:43:34;;;;;;;11.77;4.90;;;;;;;;;;2273250;55;21159;-80
2022/07/25 12:46:01;;;;;;;6.25;4.32;;;;;;;;;;2265150;57;21714;-79
2022/07/25 12:48:28;;;;;;;9.20;4.18;;;;;;;;;;2266157;59;21064;-79
2022/07/25 12:50:55;;;;;;;4.53;4.12;;;;;;;;;;2265816;59;21076;-79
2022/07/25 12:53:22;;;;;;;6.43;4.43;;;;;;;;;;2265657;59;21076;-79
2022/07/25 12:55:50;;;;;;;5.32;4.78;;;;;;;;;;2265017;59;21139;-79
2022/07/25 12:58:17;;;;;;;5.30;4.18;;;;;;;;;;2265119;59;21502;-79
2022/07/25 13:00:45;;;;;;;5.05;4.43;;;;;;;;;;2272108;55;21624;-80
2022/07/25 13:03:13;;;;;;;7.30;4.40;;;;;;;;;;2267739;55;21064;-80
2022/07/25 13:05:41;;;;;;;6.05;4.45;;;;;;;;;;2265242;58;21127;-80
2022/07/25 13:08:08;;;;;;;5.72;4.30;;;;;;;;;;2279607;55;21135;-79
2022/07/25 13:10:35;;;;;;;4.47;4.07;;;;;;;;;;2265111;59;21084;-79
2022/07/25 13:13:02;;;;;;;4.32;3.92;;;;;;;;;;2264782;59;21048;-79
2022/07/25 13:15:29;;;;;;;4.50;4.10;;;;;;;;;;2264875;59;21143;-80
2022/07/25 13:17:56;;;;;;;4.80;4.20;;;;;;;;;;2265191;59;21075;-79
2022/07/25 13:20:24;;;;;;;7.35;4.75;;;;;;;;;;2265236;59;21060;-79
2022/07/25 13:22:51;;;;;;;6.03;4.90;;;;;;;;;;2285768;55;21068;-79
2022/07/25 13:25:18;;;;;;;6.78;4.97;;;;;;;;;;2272793;55;21068;-80
2022/07/25 13:27:47;;;;;;;5.82;4.82;;;;;;;;;;2265439;59;21080;-79
2022/07/25 13:30:15;;;;;;;5.72;4.90;;;;;;;;;;2263250;59;21091;-79
2022/07/25 13:32:42;;;;;;;6.05;4.90;;;;;;;;;;2265827;55;21389;-79
2022/07/25 13:35:10;;;;;;;6.53;4.20;;;;;;;;;;2264725;57;21641;-80
2022/07/25 13:37:37;;;;;;;10.10;5.07;;;;;;;;;;2267577;55;21076;-80
2022/07/25 13:40:05;;;;;;;5.37;4.78;;;;;;;;;;2269076;55;21707;-79
2022/07/25 13:42:31;;;;;;;5.18;4.60;;;;;;;;;;2273680;55;21341;-79
2022/07/25 13:44:58;;;;;;;5.43;4.75;;;;;;;;;;2285323;55;21139;-79
2022/07/25 13:47:26;;;;;;;5.50;4.70;;;;;;;;;;2271628;55;21128;-79
2022/07/25 13:49:53;;;;;;;4.93;4.43;;;;;;;;;;2277297;55;21163;-79
2022/07/25 13:52:20;;;;;;;6.40;4.80;;;;;;;;;;2277897;55;21349;-79
2022/07/25 13:54:47;;;;;;;6.37;4.18;;;;;;;;;;2264320;56;21568;-75
2022/07/25 13:57:14;;;;;;;6.37;4.70;;;;;;;;;;2264276;59;21135;-76
2022/07/25 13:59:41;;;;;;;6.07;4.30;;;;;;;;;;2400866;55;21071;-77
2022/07/25 14:02:08;;;;;;;5.75;4.90;;;;;;;;;;2264574;59;21619;-80
2022/07/25 14:04:35;;;;;;;5.37;4.35;;;;;;;;;;2264481;59;22345;-79
2022/07/25 14:07:02;;;;;;;5.05;4.50;;;;;;;;;;2264639;59;21156;-80
2022/07/25 14:09:29;;;;;;;6.22;4.35;;;;;;;;;;2264673;59;21132;-79
2022/07/25 14:11:56;;;;;;;5.50;4.40;;;;;;;;;;2264459;59;21124;-80
2022/07/25 14:14:23;;;;;;;5.40;4.57;;;;;;;;;;2264378;57;21182;-80
2022/07/25 14:16:51;;;;;;;4.95;4.40;;;;;;;;;;2264815;59;21139;-79
2022/07/25 14:19:19;;;;;;;5.22;4.72;;;;;;;;;;2264823;59;21147;-80
2022/07/25 14:21:46;;;;;;;5.05;4.55;;;;;;;;;;2265697;59;21155;-80
2022/07/25 14:24:13;;;;;;;7.45;5.00;;;;;;;;;;2265654;59;21080;-81
2022/07/25 14:26:40;;;;;;;6.10;4.65;;;;;;;;;;2264770;59;21202;-81
2022/07/25 14:29:09;;;;;;;8.68;5.10;;;;;;;;;;2266615;55;21143;-81
2022/07/25 14:31:37;;;;;;;5.20;4.70;;;;;;;;;;2265776;59;21058;-81
2022/07/25 14:34:04;;;;;;;9.52;5.60;;;;;;;;;;2265595;59;21097;-81
2022/07/25 14:36:31;;;;;;;6.03;5.05;;;;;;;;;;2265746;59;21159;-81
2022/07/25 14:38:59;;;;;;;9.43;5.30;;;;;;;;;;2266299;59;21652;-81
2022/07/25 14:41:26;;;;;;;6.85;5.75;;;;;;;;;;2266400;59;21124;-80
2022/07/25 14:43:53;;;;;;;8.05;6.12;;;;;;;;;;2266470;59;21067;-80
2022/07/25 14:46:20;;;;;;;14.45;7.95;;;;;;;;;;2265974;59;21339;-80
2022/07/25 14:48:47;;;;;;;12.02;7.87;;;;;;;;;;2264703;59;21156;-81
2022/07/25 14:51:16;;;;;;;12.57;7.82;;;;;;;;;;2278813;55;21075;-80
2022/07/25 14:53:43;;;;;;;13.27;9.65;;;;;;;;;;2266120;59;21159;-80
2022/07/25 14:56:10;;;;;;;32.50;13.88;;;;;;;;;;2265531;59;21128;-83
2022/07/25 14:58:38;;;;;;;21.25;11.70;;;;;;;;;;2266058;59;21080;-85
2022/07/25 15:01:05;;;;;;;16.77;11.65;;;;;;;;;;2270119;55;22162;-85
2022/07/25 15:03:32;;;;;;;12.37;10.45;;;;;;;;;;2272349;55;21647;-83
2022/07/25 15:05:59;;;;;;;12.88;11.07;;;;;;;;;;2265698;59;21151;-83